createdAt,value
2018-11-28T00:02:25.758Z,98825.48
2018-11-28T00:04:55.784Z,98825.36
2018-11-28T00:07:25.886Z,98829.30
2018-11-28T00:09:55.899Z,98832.02
2018-11-28T00:12:25.967Z,98830.09
2018-11-28T00:14:55.939Z,98834.11
2018-11-28T00:17:26.011Z,98830.09
2018-11-28T00:19:56.037Z,98834.92
2018-11-28T00:22:26.089Z,98836.36
2018-11-28T00:24:56.103Z,98838.26
2018-11-28T00:27:26.137Z,98834.09
2018-11-28T00:29:56.134Z,98832.91
2018-11-28T00:32:26.109Z,98829.16
2018-11-28T00:34:56.181Z,98828.34
2018-11-28T00:37:26.177Z,98826.69
2018-11-28T00:39:56.189Z,98828.48
2018-11-28T00:42:29.704Z,98831.06
2018-11-28T00:44:59.833Z,98835.83
2018-11-28T00:47:29.876Z,98836.73
2018-11-28T00:49:59.858Z,98840.64
2018-11-28T00:52:29.902Z,98845.81
2018-11-28T00:54:59.920Z,98849.70
2018-11-28T00:57:29.952Z,98845.06
2018-11-28T01:00:00.299Z,98852.34
2018-11-28T01:02:30.311Z,98851.05
2018-11-28T01:05:00.322Z,98856.69
2018-11-28T01:07:30.389Z,98860.98
2018-11-28T01:10:00.376Z,98864.42
2018-11-28T01:12:30.444Z,98864.00
2018-11-28T01:15:00.504Z,98870.91
2018-11-28T01:17:30.528Z,98874.76
2018-11-28T01:20:00.609Z,98879.06
2018-11-28T01:22:30.668Z,98877.80
2018-11-28T01:25:00.680Z,98879.95
2018-11-28T01:27:30.661Z,98881.63
2018-11-28T01:30:00.712Z,98882.08
2018-11-28T01:32:30.820Z,98877.81
2018-11-28T01:35:00.821Z,98877.38
2018-11-28T01:37:31.208Z,98874.41
2018-11-28T01:40:01.222Z,98874.42
2018-11-28T01:42:31.221Z,98875.28
2018-11-28T01:45:01.232Z,98878.74
2018-11-28T01:47:31.286Z,98884.30
2018-11-28T01:50:01.678Z,98887.70
2018-11-28T01:52:31.314Z,98880.87
2018-11-28T01:55:01.404Z,98879.55
2018-11-28T01:57:31.436Z,98871.40
2018-11-28T02:00:01.424Z,98876.11
2018-11-28T02:02:31.467Z,98876.89
2018-11-28T02:05:01.485Z,98881.09
2018-11-28T02:07:31.479Z,98879.27
2018-11-28T02:10:01.461Z,98876.62
2018-11-28T02:12:31.468Z,98879.08
2018-11-28T02:15:01.474Z,98884.23
2018-11-28T02:17:31.609Z,98884.72
2018-11-28T02:20:01.728Z,98885.64
2018-11-28T02:22:31.770Z,98884.86
2018-11-28T02:25:01.760Z,98883.61
2018-11-28T02:27:31.833Z,98881.91
2018-11-28T02:30:01.881Z,98885.78
2018-11-28T02:32:31.942Z,98883.67
2018-11-28T02:35:02.010Z,98889.69
2018-11-28T02:37:32.030Z,98892.23
2018-11-28T02:40:02.076Z,98891.39
2018-11-28T02:42:32.152Z,98892.66
2018-11-28T02:45:02.166Z,98893.50
2018-11-28T02:47:32.170Z,98899.41
2018-11-28T02:50:18.166Z,98896.83
2018-11-28T02:52:49.512Z,98898.95
2018-11-28T02:55:19.562Z,98895.10
2018-11-28T02:57:50.411Z,98894.64
2018-11-28T03:00:23.234Z,98897.66
2018-11-28T03:02:53.464Z,98895.55
2018-11-28T03:05:23.491Z,98896.83
2018-11-28T03:07:53.458Z,98890.83
2018-11-28T03:10:23.731Z,98895.53
2018-11-28T03:12:53.722Z,98891.67
2018-11-28T03:15:28.967Z,98892.04
2018-11-28T03:17:58.959Z,98893.33
2018-11-28T03:20:28.970Z,98895.91
2018-11-28T03:22:58.968Z,98895.84
2018-11-28T03:25:29.009Z,98892.83
2018-11-28T03:27:59.028Z,98893.67
2018-11-28T03:30:29.059Z,98902.17
2018-11-28T03:32:59.075Z,98906.83
2018-11-28T03:35:29.466Z,98905.52
2018-11-28T03:37:59.442Z,98907.67
2018-11-28T03:40:29.451Z,98901.27
2018-11-28T03:42:59.455Z,98903.37
2018-11-28T03:45:29.707Z,98897.39
2018-11-28T03:47:59.942Z,98890.58
2018-11-28T03:50:29.942Z,98894.41
2018-11-28T03:53:03.232Z,98898.69
2018-11-28T03:55:33.332Z,98889.67
2018-11-28T03:58:03.402Z,98887.98
2018-11-28T04:00:33.412Z,98893.53
2018-11-28T04:03:03.466Z,98896.05
2018-11-28T04:05:33.494Z,98900.78
2018-11-28T04:08:03.572Z,98902.48
2018-11-28T04:10:33.587Z,98901.64
2018-11-28T04:13:03.678Z,98901.64
2018-11-28T04:15:33.724Z,98899.06
2018-11-28T04:18:03.809Z,98901.20
2018-11-28T04:20:33.825Z,98901.20
2018-11-28T04:23:03.878Z,98909.31
2018-11-28T04:25:34.136Z,98911.48
2018-11-28T04:28:04.189Z,98908.93
2018-11-28T04:30:34.148Z,98908.48
2018-11-28T04:33:04.200Z,98908.07
2018-11-28T04:35:34.148Z,98911.50
2018-11-28T04:38:04.236Z,98915.38
2018-11-28T04:40:34.233Z,98915.38
2018-11-28T04:43:04.536Z,98914.94
2018-11-28T04:45:34.505Z,98909.86
2018-11-28T04:48:05.450Z,98906.87
2018-11-28T04:50:35.426Z,98922.20
2018-11-28T04:53:06.379Z,98925.22
2018-11-28T04:55:36.389Z,98913.28
2018-11-28T04:58:06.749Z,98913.31
2018-11-28T05:00:37.147Z,98920.16
2018-11-28T05:03:07.188Z,98924.02
2018-11-28T05:05:37.205Z,98921.83
2018-11-28T05:08:07.163Z,98923.09
2018-11-28T05:10:37.374Z,98926.92
2018-11-28T05:13:07.346Z,98932.50
2018-11-28T05:15:37.912Z,98927.78
2018-11-28T05:18:08.039Z,98935.09
2018-11-28T05:20:38.002Z,98935.91
2018-11-28T05:23:08.270Z,98942.33
2018-11-28T05:25:39.693Z,98932.94
2018-11-28T05:28:09.686Z,98935.50
2018-11-28T05:30:39.716Z,98941.90
2018-11-28T05:33:11.213Z,98937.19
2018-11-28T05:35:41.353Z,98935.09
2018-11-28T05:38:15.569Z,98937.64
2018-11-28T05:40:45.977Z,98936.78
2018-11-28T05:43:15.975Z,98932.03
2018-11-28T05:45:45.985Z,98936.26
2018-11-28T05:48:16.011Z,98945.25
2018-11-28T05:50:46.067Z,98945.23
2018-11-28T05:53:16.049Z,98937.14
2018-11-28T05:55:46.168Z,98943.18
2018-11-28T05:58:16.190Z,98942.34
2018-11-28T06:00:46.223Z,98944.07
2018-11-28T06:03:16.478Z,98945.81
2018-11-28T06:05:46.562Z,98944.14
2018-11-28T06:08:17.236Z,98945.40
2018-11-28T06:10:47.277Z,98941.98
2018-11-28T06:13:17.698Z,98940.22
2018-11-28T06:15:47.704Z,98940.22
2018-11-28T06:18:17.713Z,98949.55
2018-11-28T06:20:47.777Z,98949.95
2018-11-28T06:23:19.061Z,98941.31
2018-11-28T06:25:49.151Z,98948.94
2018-11-28T06:28:19.143Z,98956.05
2018-11-28T06:30:49.117Z,98961.44
2018-11-28T06:33:19.130Z,98961.30
2018-11-28T06:35:49.137Z,98965.91
2018-11-28T06:38:19.138Z,98970.11
2018-11-28T06:40:55.785Z,98962.30
2018-11-28T06:43:25.799Z,98966.91
2018-11-28T06:45:55.843Z,98974.56
2018-11-28T06:48:25.829Z,98975.89
2018-11-28T06:50:55.830Z,98975.02
2018-11-28T06:53:25.893Z,98975.82
2018-11-28T06:56:02.307Z,98978.35
2018-11-28T06:58:32.346Z,98986.43
2018-11-28T07:01:02.371Z,98992.83
2018-11-28T07:03:32.396Z,98997.51
2018-11-28T07:06:02.474Z,99004.72
2018-11-28T07:08:32.568Z,99003.05
2018-11-28T07:11:02.577Z,99006.55
2018-11-28T07:13:32.613Z,99012.17
2018-11-28T07:16:02.608Z,99013.53
2018-11-28T07:18:43.788Z,99021.22
2018-11-28T07:21:13.800Z,99023.06
2018-11-28T07:23:44.202Z,99021.94
2018-11-28T07:26:14.219Z,99029.85
2018-11-28T07:28:44.300Z,99033.84
2018-11-28T07:31:14.292Z,99037.46
2018-11-28T07:33:44.350Z,99038.45
2018-11-28T07:36:14.626Z,99036.49
2018-11-28T07:38:44.690Z,99040.04
2018-11-28T07:41:14.685Z,99035.56
2018-11-28T07:43:44.738Z,99035.72
2018-11-28T07:46:14.718Z,99036.20
2018-11-28T07:48:44.778Z,99037.58
2018-11-28T07:51:14.811Z,99040.63
2018-11-28T07:53:44.868Z,99035.13
2018-11-28T07:56:14.821Z,99031.48
2018-11-28T07:58:45.084Z,99034.57
2018-11-28T08:01:15.073Z,99035.42
2018-11-28T08:03:45.150Z,99030.36
2018-11-28T08:06:15.124Z,99037.58
2018-11-28T08:08:45.195Z,99038.58
2018-11-28T08:11:15.192Z,99039.94
2018-11-28T08:13:45.273Z,99039.63
2018-11-28T08:16:15.274Z,99038.02
2018-11-28T08:18:45.340Z,99036.82
2018-11-28T08:21:15.394Z,99041.95
2018-11-28T08:23:45.418Z,99040.25
2018-11-28T08:26:15.448Z,99034.24
2018-11-28T08:28:45.536Z,99043.69
2018-11-28T08:31:15.512Z,99045.84
2018-11-28T08:33:45.587Z,99047.10
2018-11-28T08:36:15.628Z,99049.95
2018-11-28T08:38:45.629Z,99042.05
2018-11-28T08:41:15.652Z,99046.35
2018-11-28T08:43:45.854Z,99052.61
2018-11-28T08:46:15.821Z,99056.05
2018-11-28T08:48:45.849Z,99057.72
2018-11-28T08:51:15.832Z,99049.09
2018-11-28T08:53:45.872Z,99048.50
2018-11-28T08:56:15.856Z,99049.05
2018-11-28T08:58:45.850Z,99049.70
2018-11-28T09:01:15.862Z,99051.34
2018-11-28T09:03:45.857Z,99058.70
2018-11-28T09:06:15.881Z,99067.73
2018-11-28T09:08:45.923Z,99067.53
2018-11-28T09:11:15.994Z,99060.20
2018-11-28T09:13:46.993Z,99062.08
2018-11-28T09:16:18.103Z,99061.19
2018-11-28T09:18:48.143Z,99068.05
2018-11-28T09:21:18.535Z,99071.86
2018-11-28T09:23:48.916Z,99073.19
2018-11-28T09:26:19.238Z,99075.77
2018-11-28T09:28:49.558Z,99079.37
2018-11-28T09:31:19.687Z,99083.80
2018-11-28T09:33:49.658Z,99077.64
2018-11-28T09:36:19.958Z,99073.91
2018-11-28T09:38:49.924Z,99076.09
2018-11-28T09:41:20.026Z,99069.55
2018-11-28T09:43:50.014Z,99075.23
2018-11-28T09:46:20.006Z,99073.71
2018-11-28T09:48:50.042Z,99071.47
2018-11-28T09:51:20.086Z,99069.56
2018-11-28T09:53:50.098Z,99068.81
2018-11-28T09:56:20.136Z,99074.16
2018-11-28T09:58:50.078Z,99067.76
2018-11-28T10:01:20.120Z,99059.58
2018-11-28T10:03:50.099Z,99062.95
2018-11-28T10:06:20.164Z,99062.52
2018-11-28T10:08:50.168Z,99060.77
2018-11-28T10:11:20.154Z,99059.44
2018-11-28T10:13:50.175Z,99054.57
2018-11-28T10:16:20.224Z,99055.53
2018-11-28T10:18:50.221Z,99044.86
2018-11-28T10:21:20.219Z,99049.70
2018-11-28T10:23:50.224Z,99049.17
2018-11-28T10:26:20.313Z,99047.94
2018-11-28T10:28:50.310Z,99050.51
2018-11-28T10:31:20.349Z,99043.73
2018-11-28T10:33:50.334Z,99039.27
2018-11-28T10:36:20.359Z,99027.99
2018-11-28T10:38:51.314Z,99032.16
2018-11-28T10:41:21.695Z,99027.08
2018-11-28T10:43:51.717Z,99027.59
2018-11-28T10:46:21.749Z,99025.56
2018-11-28T10:48:51.741Z,99023.08
2018-11-28T10:51:21.735Z,99017.97
2018-11-28T10:53:51.809Z,99022.03
2018-11-28T10:56:21.895Z,99018.45
2018-11-28T10:58:51.921Z,99016.53
2018-11-28T11:01:28.256Z,99013.09
2018-11-28T11:04:03.575Z,99010.41
2018-11-28T11:06:38.917Z,99001.91
2018-11-28T11:09:14.764Z,98999.33
2018-11-28T11:11:50.100Z,98999.73
2018-11-28T11:14:25.354Z,99005.24
2018-11-28T11:16:55.379Z,99007.73
2018-11-28T11:19:25.409Z,99006.25
2018-11-28T11:21:55.444Z,99013.38
2018-11-28T11:24:25.438Z,99003.33
2018-11-28T11:26:55.414Z,98999.63
2018-11-28T11:29:25.433Z,98990.61
2018-11-28T11:31:55.569Z,99005.17
2018-11-28T11:34:25.633Z,99002.13
2018-11-28T11:36:55.703Z,98999.38
2018-11-28T11:39:25.708Z,99002.44
2018-11-28T11:41:55.678Z,98999.89
2018-11-28T11:44:25.754Z,98999.22
2018-11-28T11:46:55.768Z,99002.27
2018-11-28T11:49:25.740Z,98992.81
2018-11-28T11:51:56.013Z,98991.62
2018-11-28T11:54:25.982Z,98989.84
2018-11-28T11:56:55.996Z,98991.13
2018-11-28T11:59:26.007Z,98996.50
2018-11-28T12:01:56.067Z,98985.03
2018-11-28T12:04:26.092Z,98984.49
2018-11-28T12:06:56.134Z,98985.30
2018-11-28T12:09:26.343Z,98988.82
2018-11-28T12:11:56.156Z,98980.27
2018-11-28T12:14:26.180Z,98984.08
2018-11-28T12:16:56.188Z,98979.16
2018-11-28T12:19:26.161Z,98987.50
2018-11-28T12:21:56.195Z,98988.76
2018-11-28T12:24:26.182Z,98988.19
2018-11-28T12:26:56.224Z,98986.33
2018-11-28T12:29:26.226Z,98989.70
2018-11-28T12:31:56.304Z,98989.88
2018-11-28T12:34:26.340Z,98988.47
2018-11-28T12:36:56.422Z,98998.06
2018-11-28T12:39:26.398Z,98988.25
2018-11-28T12:41:56.539Z,98981.47
2018-11-28T12:44:26.553Z,98994.91
2018-11-28T12:46:56.577Z,98980.52
2018-11-28T12:49:26.703Z,98984.61
2018-11-28T12:51:56.906Z,98982.16
2018-11-28T12:54:26.875Z,98990.19
2018-11-28T12:56:56.957Z,98986.86
2018-11-28T12:59:27.141Z,98989.08
2018-11-28T13:01:57.273Z,98991.34
2018-11-28T13:04:27.665Z,98996.97
2018-11-28T13:06:57.709Z,98989.77
2018-11-28T13:09:27.752Z,98986.95
2018-11-28T13:11:59.961Z,98984.30
2018-11-28T13:14:27.821Z,98990.73
2018-11-28T13:16:58.006Z,98981.64
2018-11-28T13:19:29.071Z,98978.17
2018-11-28T13:21:59.081Z,98976.38
2018-11-28T13:24:29.215Z,98980.55
2018-11-28T13:26:59.280Z,98989.16
2018-11-28T13:29:29.262Z,98986.52
2018-11-28T13:31:59.340Z,98985.36
2018-11-28T13:34:29.417Z,98988.75
2018-11-28T13:36:59.606Z,98986.22
2018-11-28T13:39:29.624Z,98988.91
2018-11-28T13:41:59.618Z,98997.59
2018-11-28T13:44:29.939Z,98997.16
2018-11-28T13:46:59.941Z,98995.44
2018-11-28T13:49:30.059Z,99002.34
2018-11-28T13:52:00.096Z,98997.72
2018-11-28T13:54:30.184Z,99007.17
2018-11-28T13:57:04.728Z,99005.46
2018-11-28T13:59:30.263Z,99004.59
2018-11-28T14:02:00.298Z,99003.75
2018-11-28T14:04:30.554Z,99006.30
2018-11-28T14:07:00.962Z,99001.59
2018-11-28T14:09:31.003Z,99008.02
2018-11-28T14:12:01.015Z,99015.34
2018-11-28T14:14:31.081Z,99008.05
2018-11-28T14:17:01.311Z,99011.48
2018-11-28T14:19:31.358Z,99000.73
2018-11-28T14:22:01.329Z,99013.19
2018-11-28T14:24:31.664Z,99008.92
2018-11-28T14:27:01.810Z,99020.92
2018-11-28T14:29:31.888Z,99021.80
2018-11-28T14:32:01.935Z,99018.33
2018-11-28T14:34:31.945Z,99018.33
2018-11-28T14:37:01.964Z,99021.33
2018-11-28T14:39:33.039Z,99027.75
2018-11-28T14:42:03.138Z,99021.29
2018-11-28T14:44:33.510Z,99039.33
2018-11-28T14:47:03.608Z,99038.43
2018-11-28T14:49:33.700Z,99028.55
2018-11-28T14:52:03.969Z,99036.27
2018-11-28T14:54:34.000Z,99039.22
2018-11-28T14:57:06.048Z,99036.20
2018-11-28T14:59:40.448Z,99040.89
2018-11-28T15:02:06.687Z,99043.03
2018-11-28T15:04:36.706Z,99055.42
2018-11-28T15:07:07.985Z,99047.64
2018-11-28T15:09:43.152Z,99057.05
2018-11-28T15:12:14.054Z,99050.60
2018-11-28T15:14:44.154Z,99043.31
2018-11-28T15:17:14.164Z,99044.54
2018-11-28T15:19:44.218Z,99048.41
2018-11-28T15:22:14.305Z,99054.40
2018-11-28T15:24:44.637Z,99052.20
2018-11-28T15:27:14.791Z,99053.91
2018-11-28T15:29:44.858Z,99059.48
2018-11-28T15:32:14.970Z,99057.28
2018-11-28T15:34:48.399Z,99067.92
2018-11-28T15:37:18.390Z,99054.94
2018-11-28T15:39:48.497Z,99051.91
2018-11-28T15:42:18.447Z,99055.30
2018-11-28T15:44:48.609Z,99049.68
2018-11-28T15:47:18.627Z,99048.25
2018-11-28T15:49:48.602Z,99050.33
2018-11-28T15:52:18.884Z,99051.20
2018-11-28T15:54:48.936Z,99046.02
2018-11-28T15:57:19.050Z,99054.06
2018-11-28T15:59:49.164Z,99056.17
2018-11-28T16:02:19.176Z,99056.98
2018-11-28T16:04:49.249Z,99056.09
2018-11-28T16:07:19.250Z,99057.69
2018-11-28T16:09:54.456Z,99056.36
2018-11-28T16:12:24.438Z,99064.44
2018-11-28T16:14:54.464Z,99082.88
2018-11-28T16:17:24.604Z,99076.88
2018-11-28T16:19:54.601Z,99083.61
2018-11-28T16:22:24.690Z,99099.41
2018-11-28T16:24:54.864Z,99092.48
2018-11-28T16:27:24.991Z,99094.56
2018-11-28T16:29:54.848Z,99092.41
2018-11-28T16:32:24.849Z,99089.41
2018-11-28T16:34:55.160Z,99091.99
2018-11-28T16:37:25.211Z,99085.14
2018-11-28T16:39:55.315Z,99089.83
2018-11-28T16:42:25.292Z,99091.09
2018-11-28T16:44:55.373Z,99094.52
2018-11-28T16:47:25.387Z,99094.52
2018-11-28T16:49:55.467Z,99090.20
2018-11-28T16:52:25.465Z,99092.25
2018-11-28T16:54:55.513Z,99087.56
2018-11-28T16:57:25.709Z,99088.88
2018-11-28T16:59:55.723Z,99089.56
2018-11-28T17:02:25.709Z,99087.39
2018-11-28T17:04:55.775Z,99090.84
2018-11-28T17:07:25.793Z,99093.25
2018-11-28T17:09:55.863Z,99108.64
2018-11-28T17:12:25.868Z,99103.41
2018-11-28T17:14:55.909Z,99104.27
2018-11-28T17:17:25.905Z,99114.44
2018-11-28T17:19:55.970Z,99116.09
2018-11-28T17:22:26.065Z,99095.91
2018-11-28T17:24:56.455Z,99104.00
2018-11-28T17:27:26.731Z,99109.09
2018-11-28T17:29:56.944Z,99102.69
2018-11-28T17:32:26.955Z,99104.77
2018-11-28T17:34:57.031Z,99103.13
2018-11-28T17:37:27.063Z,99096.31
2018-11-28T17:39:58.801Z,99102.63
2018-11-28T17:42:29.134Z,99106.53
2018-11-28T17:44:59.188Z,99104.27
2018-11-28T17:47:29.180Z,99101.56
2018-11-28T17:50:00.034Z,99091.14
2018-11-28T17:52:30.056Z,99103.70
2018-11-28T17:55:00.632Z,99104.17
2018-11-28T17:57:30.864Z,99110.20
2018-11-28T18:00:00.878Z,99113.17
2018-11-28T18:02:31.110Z,99110.58
2018-11-28T18:05:01.161Z,99114.36
2018-11-28T18:07:31.135Z,99111.38
2018-11-28T18:10:01.331Z,99110.96
2018-11-28T18:12:31.248Z,99108.38
2018-11-28T18:15:01.506Z,99109.69
2018-11-28T18:17:31.666Z,99104.98
2018-11-28T18:20:02.388Z,99102.38
2018-11-28T18:22:32.443Z,99109.69
2018-11-28T18:25:02.467Z,99107.98
2018-11-28T18:27:32.480Z,99104.05
2018-11-28T18:30:02.540Z,99102.84
2018-11-28T18:32:32.502Z,99104.14
2018-11-28T18:35:02.548Z,99098.19
2018-11-28T18:37:32.667Z,99090.98
2018-11-28T18:40:02.682Z,99076.48
2018-11-28T18:42:32.726Z,99078.63
2018-11-28T18:45:02.760Z,99069.19
2018-11-28T18:47:32.783Z,99075.20
2018-11-28T18:50:03.177Z,99076.48
2018-11-28T18:52:33.196Z,99074.31
2018-11-28T18:55:03.531Z,99089.31
2018-11-28T18:57:33.641Z,99097.03
2018-11-28T19:00:03.890Z,99094.09
2018-11-28T19:02:45.529Z,99083.88
2018-11-28T19:05:16.550Z,99088.96
2018-11-28T19:07:46.755Z,99084.70
2018-11-28T19:10:26.383Z,99089.83
2018-11-28T19:12:52.333Z,99091.13
2018-11-28T19:15:25.365Z,99089.47
2018-11-28T19:17:56.083Z,99089.89
2018-11-28T19:20:26.084Z,99096.32
2018-11-28T19:22:57.235Z,99093.79
2018-11-28T19:25:33.098Z,99094.66
2018-11-28T19:28:03.141Z,99103.17
2018-11-28T19:30:43.592Z,99105.34
2018-11-28T19:33:14.790Z,99106.63
2018-11-28T19:35:44.767Z,99104.13
2018-11-28T19:38:16.650Z,99125.96
2018-11-28T19:41:04.715Z,99127.72
2018-11-28T19:43:34.785Z,99126.91
2018-11-28T19:46:04.855Z,99122.20
2018-11-28T19:48:35.000Z,99119.67
2018-11-28T19:51:06.790Z,99124.37
2018-11-28T19:53:36.865Z,99135.08
2018-11-28T19:56:07.481Z,99150.06
2018-11-28T19:58:37.622Z,99153.52
2018-11-28T20:01:07.999Z,99146.31
2018-11-28T20:03:40.182Z,99132.22
2018-11-28T20:06:10.365Z,99122.38
2018-11-28T20:08:40.390Z,99117.25
2018-11-28T20:11:10.480Z,99094.97
2018-11-28T20:13:40.690Z,99102.72
2018-11-28T20:16:11.439Z,99101.02
2018-11-28T20:18:41.555Z,99099.76
2018-11-28T20:23:41.636Z,99101.87
2018-11-28T20:26:11.818Z,99095.47
2018-11-28T20:28:41.803Z,99094.22
2018-11-28T20:31:12.076Z,99095.88
2018-11-28T20:33:42.117Z,99099.31
2018-11-28T20:36:12.281Z,99101.46
2018-11-28T20:38:42.309Z,99102.72
2018-11-28T20:41:12.629Z,99097.17
2018-11-28T20:43:42.738Z,99107.88
2018-11-28T20:46:13.086Z,99111.27
2018-11-28T20:48:43.376Z,99107.88
2018-11-28T20:51:13.548Z,99106.14
2018-11-28T20:53:43.585Z,99100.59
2018-11-28T20:56:13.756Z,99094.19
2018-11-28T20:58:45.388Z,99086.08
2018-11-28T21:01:15.583Z,99093.35
2018-11-28T21:03:45.698Z,99101.55
2018-11-28T21:06:15.749Z,99108.84
2018-11-28T21:08:45.960Z,99118.23
2018-11-28T21:11:16.158Z,99113.49
2018-11-28T21:13:46.196Z,99104.50
2018-11-28T21:16:16.340Z,99098.89
2018-11-28T21:18:47.164Z,99096.28
2018-11-28T21:21:17.204Z,99103.13
2018-11-28T21:23:47.340Z,99111.63
2018-11-28T21:26:17.382Z,99110.73
2018-11-28T21:28:47.440Z,99114.48
2018-11-28T21:31:17.436Z,99110.20
2018-11-28T21:33:47.500Z,99112.77
2018-11-28T21:36:17.542Z,99121.31
2018-11-28T21:38:47.574Z,99108.95
2018-11-28T21:41:17.720Z,99089.28
2018-11-28T21:43:47.760Z,99075.16
2018-11-28T21:46:22.524Z,99083.27
2018-11-28T21:48:52.552Z,99072.55
2018-11-28T21:51:22.646Z,99075.02
2018-11-28T21:53:52.708Z,99083.57
2018-11-28T21:56:22.736Z,99095.09
2018-11-28T21:58:52.843Z,99082.27
2018-11-28T22:01:22.859Z,99074.55
2018-11-28T22:03:52.919Z,99079.70
2018-11-28T22:06:22.918Z,99092.06
2018-11-28T22:08:53.010Z,99089.53
2018-11-28T22:11:23.022Z,99097.22
2018-11-28T22:13:53.075Z,99102.30
2018-11-28T22:16:23.054Z,99093.73
2018-11-28T22:18:53.075Z,99088.60
2018-11-28T22:21:23.136Z,99085.56
2018-11-28T22:23:53.167Z,99076.58
2018-11-28T22:26:23.288Z,99067.61
2018-11-28T22:28:53.352Z,99060.76
2018-11-28T22:31:23.689Z,99051.38
2018-11-28T22:33:53.690Z,99050.09
2018-11-28T22:36:23.956Z,99042.41
2018-11-28T22:38:54.191Z,99026.59
2018-11-28T22:41:24.199Z,99024.03
2018-11-28T22:43:54.254Z,99031.75
2018-11-28T22:46:24.286Z,99035.56
2018-11-28T22:48:54.318Z,99036.40
2018-11-28T22:51:24.359Z,99033.39
2018-11-28T22:53:54.378Z,99045.33
2018-11-28T22:56:31.086Z,99046.20
2018-11-28T22:59:01.097Z,99039.38
2018-11-28T23:02:40.582Z,99033.80
2018-11-28T23:05:10.653Z,99022.70
2018-11-28T23:07:40.669Z,99017.16
2018-11-28T23:10:10.697Z,99021.45
2018-11-28T23:12:40.671Z,99017.60
2018-11-28T23:15:10.750Z,99018.47
2018-11-28T23:17:40.753Z,99021.42
2018-11-28T23:20:10.967Z,99020.97
2018-11-28T23:22:41.003Z,99030.33
2018-11-28T23:25:11.881Z,99033.66
2018-11-28T23:27:41.881Z,99033.22
2018-11-28T23:30:15.885Z,99035.33
2018-11-28T23:32:46.669Z,99026.73
2018-11-28T23:35:16.956Z,99022.83
2018-11-28T23:37:48.054Z,99024.08
2018-11-28T23:40:21.814Z,99027.02
2018-11-28T23:42:52.473Z,99012.49
2018-11-28T23:45:22.689Z,99011.63
2018-11-28T23:47:52.678Z,99001.33
2018-11-28T23:50:26.614Z,99005.97
2018-11-28T23:52:56.717Z,99012.28
2018-11-28T23:55:28.629Z,99011.45
2018-11-28T23:57:58.709Z,99008.00
